Angelo Coast Range Reserve, California Weather observations

Data are for 10 minute period ending at time listed.
 Day   Time   Solar   Ave.   Ave.  Ave.  Vector  Max.   Baro.   Total    
  of    of     Rad.   Air    Rel.  Wind   Wind   Wind  Press.  Precip.   
Year   Day            Temp.  Hum.  Speed  Dir.   Gust                    
2024   (PST)  Kw/m2    F      %     mph   deg.    mph    mb.     in.     
-------------------------------------------------------------------------
 150   11:10   0.93   70.5    27    3.0    15    11.4   973.6    0.00 
 150   11:20   0.98   70.8    27    2.4     6     6.7   973.4    0.00 
 150   11:30   0.87   71.0    27    3.6     6     9.0   973.4    0.00 
 150   11:40   0.92   71.3    28    3.8   352     8.1   973.3    0.00 
 150   11:50   1.01   71.4    28    3.6     4     8.1   973.3    0.00 
 150   12:00   0.94   72.0    28    4.0    39     9.1   973.2    0.00 
 150   12:10   1.00   71.7    28    4.4    11    10.7   973.1    0.00 
 150   12:20   0.99   72.1    28    4.5     7     9.8   973.0    0.00 
 150   12:30   1.01   72.5    28    4.1   354    12.2   973.0    0.00 
 150   12:40   1.00   72.8    28    4.1    10     9.9   972.8    0.00 
 150   12:50   1.00   73.5    26    3.3   348     9.3   972.8    0.00 
 150   13:00   0.99   73.6    26    4.7    23    13.2   972.7    0.00 
 150   13:10   0.99   73.8    26    4.0     8    10.8   972.7    0.00 
 150   13:20   0.97   74.1    26    4.5    19    12.1   972.5    0.00 
 150   13:30   0.92   74.8    26    4.9    30    12.3   972.5    0.00 
 150   13:40   0.95   74.7    26    4.4    28    12.1   972.4    0.00 
 150   13:50   0.94   74.1    26    6.0    35    13.0   972.3    0.00 
 150   14:00   0.92   74.1    26    4.2     7     8.8   972.3    0.00 
 150   14:10   0.90   74.9    26    4.6    12    12.0   972.2    0.00 
 150   14:20   0.89   74.5    26    5.2    31    10.7   972.1    0.00 
 150   14:30   0.86   74.9    27    4.9    20    12.7   972.1    0.00 
 150   14:40   0.84   74.9    27    4.3   345    12.3   972.0    0.00 
 150   14:50   0.82   74.5    27    4.6   357    13.4   972.0    0.00 
 150   15:00   0.80   74.3    28    5.0    13    14.3   971.8    0.00 
 150   15:10   0.77   74.3    28    4.4   356    10.4   971.8    0.00 
 150   15:20   0.74   73.7    28    5.1    43    12.0   971.7    0.00 
 150   15:30   0.72   73.8    29    4.9    34    12.4   971.7    0.00 
 150   15:40   0.70   73.0    29    5.2    34    12.9   971.6    0.00 
 150   15:50   0.67   73.3    29    4.5    15    15.1   971.5    0.00 
 150   16:00   0.64   72.3    30    4.5     7    12.0   971.6    0.00 
 150   16:10   0.60   72.1    30    4.6    42    11.4   971.6    0.00 
 150   16:20   0.57   71.8    31    3.7    36     8.4   971.7    0.00 
 150   16:30   0.54   71.4    31    3.5    52     8.9   971.7    0.00 
 150   16:40   0.51   71.2    32    3.6    40    12.6   971.6    0.00 
 150   16:50   0.47   71.1    32    4.4    18    11.5   971.6    0.00 
 150   17:00   0.44   70.1    33    4.0    29    11.3   971.7    0.00 
 150   17:10   0.33   69.1    34    3.5    24     9.3   971.8    0.00 
 150   17:20   0.12   67.5    36    3.4    18    11.0   971.9    0.00 
 150   17:30   0.06   66.8    37    2.8   349     7.7   971.8    0.00 
 150   17:40   0.10   66.5    37    3.8    20     7.2   971.9    0.00 
 150   17:50   0.07   65.8    38    3.7     4     9.8   971.9    0.00 
 150   18:00   0.04   65.2    39    3.9   346     9.0   971.9    0.00 
 150   18:10   0.04   64.5    40    5.3   333    10.9   971.8    0.00 
 150   18:20   0.03   64.0    40    4.4   330    12.4   971.9    0.00 
 150   18:30   0.03   63.4    41    3.8   328    10.3   971.9    0.00 
 150   18:40   0.03   63.0    42    3.5   326    10.6   972.0    0.00 
 150   18:50   0.03   62.6    42    2.9   327     7.9   972.1    0.00 
 150   19:00   0.02   62.2    42    3.1   321     7.4   972.1    0.00 
 150   19:10   0.01   61.5    43    2.6   332     9.3   972.0    0.00 
 150   19:20   0.01   60.6    47    2.8    20     4.9   972.0    0.00 
 150   19:30   0.01   59.5    50    2.6    22     4.2   972.0    0.00 
 150   19:40   0.00   58.9    51    2.7     7     6.7   971.9    0.00 
 150   19:50   0.00   58.1    52    2.0   338     3.1   971.9    0.00 
 150   20:00   0.00   57.4    53    2.0   337     3.4   971.9    0.00 
 150   20:10   0.00   56.6    54    1.5   341     3.4   971.8    0.00 
 150   20:20   0.00   55.8    56    1.3   350     2.4   971.9    0.00 
 150   20:30   0.00   55.1    58    1.5   357     2.6   971.9    0.00 
 150   20:40   0.00   54.8    59    1.5     4     2.3   972.0    0.00 
 150   20:50   0.00   54.4    60    0.7   200     2.0   972.0    0.00 
 150   21:00   0.00   53.8    61    0.4   345     2.5   972.1    0.00 
 150   21:10   0.00   53.5    62    0.0   310     0.4   972.2    0.00 
 150   21:20   0.00   53.3    62    0.1   333     1.2   972.2    0.00 
 150   21:30   0.00   52.9    63    0.7   344     1.7   972.2    0.00 
 150   21:40   0.00   52.6    64    0.3   319     1.6   972.2    0.00 
 150   21:50   0.00   52.4    65    1.0   355     2.1   972.2    0.00 
 150   22:00   0.00   52.1    65    1.7     2     2.9   972.1    0.00 
 150   22:10   0.00   52.6    64    3.0    15     5.7   972.1    0.00 
 150   22:20   0.00   52.8    63    3.1   342     5.5   972.0    0.00 
 150   22:30   0.00   52.9    63    2.7   353     4.0   972.0    0.00 
 150   22:40   0.00   52.6    63    3.0     2     4.9   971.9    0.00 
 150   22:50   0.00   53.3    62    3.5    20     6.9   971.8    0.00 
 150   23:00   0.00   53.4    61    3.4    30     5.0   971.8    0.00 
 150   23:10   0.00   53.8    60    3.1    39     4.3   971.7    0.00 
 150   23:20   0.00   53.7    60    2.0    34     3.3   971.7    0.00 
 150   23:30   0.00   53.0    62    1.7    40     3.1   971.6    0.00 
 150   23:40   0.00   52.2    64    2.2    26     3.7   971.5    0.00 
 150   23:50   0.00   51.7    65    0.6    31     2.6   971.4    0.00 
 151    0:00   0.00   51.0    68    0.0   222     1.2   971.3    0.00 
 151    0:10   0.00   50.8    67    1.5    30     4.1   971.2    0.00 
 151    0:20   0.00   51.1    66    1.2    16     2.4   971.1    0.00 
 151    0:30   0.00   50.4    70    0.0   244     0.7   971.0    0.00 
 151    0:40   0.00   50.0    70    0.1   204     1.3   970.8    0.00 
 151    0:50   0.00   49.7    71    0.5   207     1.5   970.9    0.00 
 151    1:00   0.00   49.6    70    0.0   164     0.7   970.8    0.00 
 151    1:10   0.00   49.4    72    0.0     0     0.0   970.7    0.00 
 151    1:20   0.00   49.0    72    0.4   240     1.5   970.6    0.00 
 151    1:30   0.00   48.7    74    0.1   336     1.3   970.4    0.00 
 151    1:40   0.00   48.6    74    0.1   263     0.9   970.4    0.00 
 151    1:50   0.00   48.4    75    0.0     0     0.0   970.3    0.00 
 151    2:00   0.00   48.1    75    0.0     6     1.3   970.3    0.00 
 151    2:10   0.00   47.7    76    1.3     8     2.2   970.2    0.00 
 151    2:20   0.00   47.4    76    1.1   344     1.8   970.0    0.00 
 151    2:30   0.00   47.0    77    1.3   348     2.1   969.9    0.00 
 151    2:40   0.00   46.7    78    1.4   347     2.2   969.9    0.00 
 151    2:50   0.00   46.2    79    1.4   327     2.1   969.8    0.00 
 151    3:00   0.00   46.2    79    1.4   335     2.0   969.7    0.00 
 151    3:10   0.00   45.9    79    1.4   342     2.3   969.7    0.00 
 151    3:20   0.00   45.7    80    1.3   351     1.9   969.6    0.00 
 151    3:30   0.00   45.4    82    1.0   335     1.9   969.6    0.00 
 151    3:40   0.00   45.0    83    1.2   342     2.1   969.5    0.00 
 151    3:50   0.00   45.0    82    1.4   329     2.3   969.5    0.00 
 151    4:00   0.00   44.9    82    1.7   355     3.1   969.5    0.00 
 151    4:10   0.00   45.0    83    1.3   341     1.8   969.5    0.00 
 151    4:20   0.00   44.6    83    1.3   357     2.8   969.4    0.00 
 151    4:30   0.00   44.6    84    1.6   334     2.6   969.3    0.00 
 151    4:40   0.00   44.6    84    1.5   352     2.8   969.3    0.00 
 151    4:50   0.00   44.5    84    0.6   349     2.0   969.3    0.00 
 151    5:00   0.01   44.3    84    0.0     0     0.0   969.4    0.00 
 151    5:10   0.01   44.1    86    0.2   327     1.5   969.4    0.00 
 151    5:20   0.01   44.0    86    0.4   341     1.2   969.4    0.00 
 151    5:30   0.01   43.9    86    0.1     0     0.9   969.4    0.00 
 151    5:40   0.01   43.9    86    0.4   317     1.3   969.3    0.00 
 151    5:50   0.01   43.9    86    0.1   333     1.0   969.3    0.00 
 151    6:00   0.02   43.9    86    0.2   181     1.3   969.2    0.00 
 151    6:10   0.02   43.9    86    0.0   181     0.1   969.2    0.00 
 151    6:20   0.02   44.0    86    0.0     0     0.0   969.2    0.00 
 151    6:30   0.03   44.3    85    0.0     0     0.0   969.2    0.00 
 151    6:40   0.03   44.4    85    1.4   175     2.3   969.3    0.00 
 151    6:50   0.03   44.7    84    0.0   153     1.0   969.3    0.00 
 151    7:00   0.03   45.3    83    0.3    42     1.9   969.3    0.00 
 151    7:10   0.04   46.1    82    0.4    89     1.6   969.3    0.00 
 151    7:20   0.05   47.5    79    0.7    98     1.8   969.2    0.00 
 151    7:30   0.08   49.1    76    0.6    84     1.5   969.2    0.00 
 151    7:40   0.10   50.2    74    0.6   103     2.6   969.2    0.00 
 151    7:50   0.21   52.3    71    1.6    92     3.7   969.1    0.00 
 151    8:00   0.41   53.9    66    1.2    90     2.0   969.0    0.00 
 151    8:10   0.47   56.0    60    1.8    94     3.0   969.0    0.00 
 151    8:20   0.49   57.5    60    2.2    95     3.5   968.9    0.00 
 151    8:30   0.55   58.6    58    2.4   102     3.0   968.8    0.00 
 151    8:40   0.64   60.1    56    2.5    87     3.1   968.7    0.00 
 151    8:50   0.67   61.7    54    2.6    80     4.2   968.6    0.00 
 151    9:00   0.71   63.6    52    1.9    74     3.3   968.5    0.00 
 151    9:10   0.74   65.5    47    2.3    87     4.3   968.5    0.00 
 151    9:20   0.74   66.8    45    2.1    33     6.6   968.5    0.00 
 151    9:30   0.80   68.6    42    2.2    38     6.7   968.4    0.00 
 151    9:40   0.72   70.2    39    2.2    43     5.0   968.3    0.00 
 151    9:50   0.80   70.4    39    1.7    52     3.7   968.3    0.00 
 151   10:00   0.86   72.8    33    2.6    54     5.8   968.2    0.00 
 151   10:10   0.88   74.7    30    2.4    35     6.2   968.1    0.00 
 151   10:20   0.77   75.8    29    2.9    26     5.8   968.0    0.00 
 151   10:30   0.80   76.4    28    1.8    18     5.3   968.0    0.00 
 151   10:40   0.88   78.2    27    2.1   351     4.7   967.9    0.00 
 151   10:50   0.91   79.4    26    2.5   354     4.8   967.9    0.00 
 151   11:00   0.96   80.3    23    2.4   353     6.1   967.9    0.00 

Return to Angelo Coast Range Reserve graphs page.


Western Regional Climate Center,wrcc@dri.edu